createdAt,value
2022-12-24T05:17:39.280Z,1.95
2022-12-24T05:20:06.899Z,1.90
2022-12-24T05:22:52.209Z,1.35
2022-12-24T05:25:40.853Z,1.30
2022-12-24T05:28:07.464Z,1.13
2022-12-24T05:30:34.214Z,1.23
2022-12-24T05:33:00.844Z,2.08
2022-12-24T05:35:27.458Z,1.25
2022-12-24T05:37:58.116Z,1.20
2022-12-24T05:40:24.740Z,2.63
2022-12-24T05:42:51.367Z,1.60
2022-12-24T05:45:17.880Z,1.55
2022-12-24T05:47:44.297Z,1.58
2022-12-24T05:50:11.201Z,1.63
2022-12-24T05:52:37.679Z,1.45
2022-12-24T05:55:04.770Z,1.75
2022-12-24T05:57:31.324Z,1.17
2022-12-24T05:59:57.741Z,1.48
2022-12-24T06:02:24.244Z,1.80
2022-12-24T06:04:50.738Z,1.48
2022-12-24T06:07:17.437Z,1.20
2022-12-24T06:09:46.971Z,1.52
2022-12-24T06:12:23.744Z,1.33
2022-12-24T06:15:17.449Z,1.42
2022-12-24T06:17:47.034Z,1.40
2022-12-24T06:20:14.884Z,1.63
2022-12-24T06:22:48.616Z,1.67
2022-12-24T06:25:23.141Z,1.65
2022-12-24T06:27:49.956Z,1.85
2022-12-24T06:30:18.598Z,1.45
2022-12-24T06:32:45.284Z,1.02
2022-12-24T06:35:12.352Z,1.60
2022-12-24T06:37:47.932Z,1.42
2022-12-24T06:40:14.897Z,1.42
2022-12-24T06:42:41.555Z,1.35
2022-12-24T06:45:09.932Z,1.30
2022-12-24T06:47:37.332Z,2.35
2022-12-24T06:50:04.500Z,1.25
2022-12-24T06:52:31.299Z,1.60
2022-12-24T06:54:58.087Z,1.17
2022-12-24T06:57:46.212Z,1.25
2022-12-24T07:00:22.872Z,2.00
2022-12-24T07:02:54.923Z,1.92
2022-12-24T07:05:34.284Z,1.42
2022-12-24T07:11:21.513Z,1.35
2022-12-24T07:13:58.135Z,1.60
2022-12-24T07:16:33.530Z,1.50
2022-12-24T07:19:06.085Z,1.40
2022-12-24T07:21:36.871Z,1.75
2022-12-24T07:24:11.824Z,1.60
2022-12-24T07:26:41.972Z,1.60
2022-12-24T07:29:08.963Z,1.95
2022-12-24T07:31:38.513Z,2.05
2022-12-24T07:34:05.675Z,1.63
2022-12-24T07:36:32.788Z,1.63
2022-12-24T07:39:01.801Z,1.67
2022-12-24T07:41:28.873Z,1.65
2022-12-24T07:43:58.822Z,1.92
2022-12-24T07:46:27.212Z,1.13
2022-12-24T07:48:54.004Z,1.70
2022-12-24T07:51:20.702Z,2.22
2022-12-24T07:53:48.011Z,1.88
2022-12-24T07:56:15.598Z,2.53
2022-12-24T07:58:42.704Z,1.75
2022-12-24T08:01:10.242Z,3.17
2022-12-24T08:03:36.839Z,9.10
2022-12-24T08:06:03.527Z,5.43
2022-12-24T08:08:30.136Z,3.90
2022-12-24T08:11:02.765Z,4.72
2022-12-24T08:13:29.907Z,2.03
2022-12-24T08:15:57.028Z,2.70
2022-12-24T08:18:24.185Z,1.80
2022-12-24T08:20:51.512Z,3.05
2022-12-24T08:23:18.898Z,2.42
2022-12-24T08:25:48.408Z,2.45
2022-12-24T08:28:22.302Z,2.17
2022-12-24T08:33:32.017Z,2.15
2022-12-24T08:36:03.984Z,2.20
2022-12-24T08:39:19.394Z,2.92
2022-12-24T08:45:56.363Z,2.38
2022-12-24T08:52:57.139Z,3.03
2022-12-24T08:55:28.287Z,2.65
2022-12-24T09:01:59.679Z,2.92
2022-12-24T09:04:53.501Z,1.80
2022-12-24T09:07:35.543Z,3.30
2022-12-24T09:10:20.369Z,2.22
2022-12-24T09:13:26.438Z,3.10
2022-12-24T09:16:12.863Z,2.28
2022-12-24T09:19:03.879Z,2.95
2022-12-24T09:21:55.535Z,2.70
2022-12-24T09:27:35.148Z,3.30
2022-12-24T09:30:07.695Z,2.83
2022-12-24T09:32:49.555Z,3.78
2022-12-24T09:38:12.231Z,2.75
2022-12-24T09:40:45.708Z,2.67
2022-12-24T09:43:22.183Z,2.22
2022-12-24T09:49:47.839Z,3.58
2022-12-24T09:52:27.724Z,3.65
2022-12-24T09:55:33.712Z,3.05
2022-12-24T09:58:10.647Z,2.65
2022-12-24T10:01:06.970Z,3.17
2022-12-24T10:03:33.765Z,3.33
2022-12-24T10:06:07.621Z,2.97
2022-12-24T10:08:39.036Z,2.90
2022-12-24T10:12:01.507Z,2.65
2022-12-24T10:15:03.123Z,3.25
2022-12-24T10:18:36.084Z,3.85
2022-12-24T10:25:37.910Z,4.72
2022-12-24T10:28:13.783Z,5.35
2022-12-24T10:30:41.778Z,3.97
2022-12-24T10:33:31.315Z,3.05
2022-12-24T10:36:54.366Z,3.38
2022-12-24T10:40:02.771Z,3.50
2022-12-24T10:42:50.677Z,3.90
2022-12-24T10:45:30.165Z,3.00
2022-12-24T10:48:04.981Z,3.63
2022-12-24T10:50:35.842Z,3.90
2022-12-24T10:53:43.659Z,3.65
2022-12-24T10:56:41.341Z,3.00
2022-12-24T10:59:29.057Z,3.13
2022-12-24T11:02:02.395Z,4.05
2022-12-24T11:04:36.155Z,2.80
2022-12-24T11:07:19.496Z,3.50
2022-12-24T11:09:56.688Z,3.33
2022-12-24T11:12:27.500Z,2.78
2022-12-24T11:15:17.204Z,2.90
2022-12-24T11:18:04.875Z,3.47
2022-12-24T11:20:34.360Z,3.45
2022-12-24T11:23:02.403Z,3.38
2022-12-24T11:25:38.705Z,3.13
2022-12-24T11:28:19.848Z,4.00
2022-12-24T11:31:20.027Z,2.13
2022-12-24T11:33:50.370Z,3.97
2022-12-24T11:36:21.920Z,2.67
2022-12-24T11:38:59.068Z,2.60
2022-12-24T11:41:26.602Z,2.70
2022-12-24T11:44:03.732Z,3.08
2022-12-24T11:46:54.446Z,2.70
2022-12-24T11:49:32.052Z,2.63
2022-12-24T11:52:10.841Z,3.97
2022-12-24T11:55:16.524Z,2.78
2022-12-24T11:58:21.977Z,3.28
2022-12-24T12:01:15.818Z,1.83
2022-12-24T12:03:51.178Z,1.90
2022-12-24T12:06:40.512Z,2.35
2022-12-24T12:09:23.651Z,2.20
2022-12-24T12:11:58.756Z,3.72
2022-12-24T12:14:41.715Z,2.65
2022-12-24T12:17:47.739Z,1.95
2022-12-24T12:20:26.793Z,2.10
2022-12-24T12:23:02.596Z,2.53
2022-12-24T12:25:35.132Z,2.55
2022-12-24T12:28:06.279Z,2.58
2022-12-24T12:30:35.737Z,2.45
2022-12-24T12:33:19.359Z,2.63
2022-12-24T12:35:48.627Z,3.58
2022-12-24T12:38:24.863Z,2.70
2022-12-24T12:41:29.150Z,4.35
2022-12-24T12:44:27.806Z,3.58
2022-12-24T12:47:28.381Z,2.45
2022-12-24T12:50:23.152Z,2.47
2022-12-24T12:52:59.045Z,1.95
2022-12-24T12:55:38.025Z,3.08
2022-12-24T12:58:12.938Z,1.65
2022-12-24T13:01:16.614Z,2.25
2022-12-24T13:04:08.160Z,1.83
2022-12-24T13:07:17.083Z,2.10
2022-12-24T13:10:12.030Z,2.08
2022-12-24T13:13:32.782Z,1.95
2022-12-24T13:16:38.997Z,1.73
2022-12-24T13:19:18.363Z,2.28
2022-12-24T13:22:34.658Z,2.28
2022-12-24T13:25:01.299Z,2.20
2022-12-24T13:27:35.329Z,1.42
2022-12-24T13:30:39.779Z,2.28
2022-12-24T13:33:11.273Z,1.73
2022-12-24T13:35:57.358Z,2.13
2022-12-24T13:38:27.904Z,1.77
2022-12-24T13:40:56.184Z,1.90
2022-12-24T13:43:22.736Z,2.40
2022-12-24T13:45:51.080Z,1.80
2022-12-24T13:48:33.701Z,2.55
2022-12-24T13:51:23.546Z,2.30
2022-12-24T13:53:58.898Z,2.28
2022-12-24T13:56:27.041Z,2.30
2022-12-24T13:59:11.860Z,2.45
2022-12-24T14:01:42.451Z,4.70
2022-12-24T14:04:21.489Z,2.33
2022-12-24T14:06:52.300Z,1.85
2022-12-24T14:09:24.988Z,1.48
2022-12-24T14:12:05.743Z,2.40
2022-12-24T14:14:41.872Z,2.83
2022-12-24T14:17:22.051Z,1.95
2022-12-24T14:19:52.429Z,1.52
2022-12-24T14:22:44.091Z,2.42
2022-12-24T14:25:17.640Z,2.38
2022-12-24T14:27:51.392Z,3.15
2022-12-24T14:30:27.019Z,3.05
2022-12-24T14:32:54.546Z,1.98
2022-12-24T14:35:39.958Z,2.78
2022-12-24T14:38:12.618Z,2.67
2022-12-24T14:40:56.012Z,2.88
2022-12-24T14:44:01.403Z,3.03
2022-12-24T14:46:39.433Z,2.78
2022-12-24T14:49:30.945Z,2.00
2022-12-24T14:52:37.800Z,1.77
2022-12-24T14:54:59.872Z,3.50
2022-12-24T14:57:27.385Z,2.28
2022-12-24T14:59:56.422Z,2.53
2022-12-24T15:02:48.403Z,2.08
2022-12-24T15:05:28.780Z,2.97
2022-12-24T15:08:00.127Z,2.45
2022-12-24T15:10:38.284Z,2.78
2022-12-24T15:13:09.363Z,3.17
2022-12-24T15:15:36.590Z,3.42
2022-12-24T15:18:04.727Z,2.92
2022-12-24T15:20:31.688Z,3.15
2022-12-24T15:22:58.938Z,2.67
2022-12-24T15:25:29.767Z,2.75
2022-12-24T15:27:57.075Z,2.92
2022-12-24T15:30:27.604Z,3.15
2022-12-24T15:32:56.548Z,3.13
2022-12-24T15:35:31.374Z,3.20
2022-12-24T15:37:59.122Z,3.03
2022-12-24T15:40:26.478Z,2.75
2022-12-24T15:42:53.523Z,3.05
2022-12-24T15:45:29.179Z,6.50
2022-12-24T15:47:59.168Z,3.17
2022-12-24T15:50:32.657Z,2.80
2022-12-24T15:53:20.944Z,3.20
2022-12-24T15:56:12.544Z,3.88
2022-12-24T15:58:41.816Z,3.13
2022-12-24T16:01:08.375Z,3.20
2022-12-24T16:03:39.996Z,2.40
2022-12-24T16:06:08.288Z,3.10
2022-12-24T16:08:38.343Z,3.17
2022-12-24T16:11:21.942Z,2.53
2022-12-24T16:13:51.427Z,4.05
2022-12-24T16:16:21.510Z,3.47
2022-12-24T16:18:55.958Z,3.70
2022-12-24T16:21:38.962Z,4.40
2022-12-24T16:24:06.251Z,3.53
2022-12-24T16:26:35.891Z,3.90
2022-12-24T16:29:02.494Z,3.17
2022-12-24T16:31:33.070Z,3.97
2022-12-24T16:34:01.355Z,3.35
2022-12-24T16:36:29.131Z,3.53
2022-12-24T16:39:15.962Z,3.10
2022-12-24T16:42:01.106Z,3.03
2022-12-24T16:44:29.184Z,3.47
2022-12-24T16:46:56.550Z,3.20
2022-12-24T16:49:23.595Z,3.78
2022-12-24T16:51:50.080Z,3.55
2022-12-24T16:54:16.569Z,3.25
2022-12-24T16:56:43.896Z,3.25
2022-12-24T16:59:16.346Z,3.63
2022-12-24T17:01:43.051Z,3.63
2022-12-24T17:04:09.883Z,3.67
2022-12-24T17:06:36.873Z,3.72
2022-12-24T17:09:03.671Z,3.63
2022-12-24T17:11:30.327Z,3.72
2022-12-24T17:13:57.043Z,3.05
2022-12-24T17:16:23.784Z,3.17
2022-12-24T17:18:52.053Z,3.72
2022-12-24T17:21:19.032Z,3.53
2022-12-24T17:23:45.909Z,3.25
2022-12-24T17:26:15.257Z,4.20
2022-12-24T17:28:42.779Z,3.47
2022-12-24T17:31:10.500Z,4.22
2022-12-24T17:33:36.993Z,4.20
2022-12-24T17:36:04.096Z,4.10
2022-12-24T17:38:30.632Z,4.03
2022-12-24T17:41:01.991Z,4.03
2022-12-24T17:43:28.657Z,4.10
2022-12-24T17:45:55.427Z,3.50
2022-12-24T17:48:22.172Z,4.05
2022-12-24T17:50:48.749Z,4.97
2022-12-24T17:53:15.467Z,4.65
2022-12-24T17:55:43.134Z,4.55
2022-12-24T17:58:11.139Z,5.68
2022-12-24T18:00:38.920Z,4.25
2022-12-24T18:03:05.673Z,5.30
2022-12-24T18:05:35.823Z,4.97
2022-12-24T18:08:02.577Z,4.13
2022-12-24T18:10:30.104Z,4.35
2022-12-24T18:12:56.648Z,4.72
2022-12-24T18:15:23.298Z,7.18
2022-12-24T18:17:53.993Z,4.72
2022-12-24T18:20:22.487Z,3.75
2022-12-24T18:22:49.206Z,3.75
2022-12-24T18:25:15.975Z,5.03
2022-12-24T18:27:42.451Z,8.82
2022-12-24T18:30:09.949Z,9.10
2022-12-24T18:32:36.805Z,7.97
2022-12-24T18:35:04.125Z,3.45
2022-12-24T18:37:30.664Z,3.40
2022-12-24T18:39:57.250Z,4.20
2022-12-24T18:42:23.870Z,4.20
2022-12-24T18:44:50.437Z,4.40
2022-12-24T18:47:16.956Z,3.72
2022-12-24T18:49:43.497Z,3.97
2022-12-24T18:52:11.671Z,3.55
2022-12-24T18:54:39.948Z,4.10
2022-12-24T18:57:07.294Z,3.03
2022-12-24T18:59:33.877Z,4.00
2022-12-24T19:02:00.445Z,6.10
2022-12-24T19:04:27.073Z,7.72
2022-12-24T19:06:53.788Z,5.10
2022-12-24T19:09:21.007Z,5.53
2022-12-24T19:11:47.570Z,6.85
2022-12-24T19:14:14.252Z,8.00
2022-12-24T19:16:41.018Z,9.50
2022-12-24T19:19:09.239Z,13.57
2022-12-24T19:21:36.063Z,12.98
2022-12-24T19:24:02.700Z,12.57
2022-12-24T19:26:29.187Z,8.85
2022-12-24T19:28:55.773Z,10.82
2022-12-24T19:31:24.652Z,7.60
2022-12-24T19:33:54.616Z,6.97
2022-12-24T19:36:24.044Z,10.13
2022-12-24T19:38:50.658Z,10.00
2022-12-24T19:41:19.778Z,8.50
2022-12-24T19:43:49.002Z,8.18
2022-12-24T19:46:18.195Z,7.75
2022-12-24T19:48:50.196Z,8.63
2022-12-24T19:51:17.496Z,9.05
2022-12-24T19:53:44.534Z,9.52
2022-12-24T19:56:15.335Z,10.25
2022-12-24T19:58:42.333Z,8.95
2022-12-24T20:01:15.539Z,7.35
2022-12-24T20:03:43.856Z,6.95
2022-12-24T20:06:10.351Z,7.50
2022-12-24T20:08:38.368Z,7.55
2022-12-24T20:11:07.561Z,7.55
2022-12-24T20:13:34.915Z,5.63
2022-12-24T20:16:10.421Z,5.95
2022-12-24T20:19:03.441Z,6.10
2022-12-24T20:21:30.486Z,6.03
2022-12-24T20:23:56.958Z,5.80
2022-12-24T20:26:25.797Z,6.25
2022-12-24T20:28:53.070Z,7.32
2022-12-24T20:31:25.506Z,7.25
2022-12-24T20:33:52.718Z,7.05
2022-12-24T20:36:21.245Z,6.88
2022-12-24T20:38:54.432Z,8.30
2022-12-24T20:41:24.711Z,8.55
2022-12-24T20:43:51.659Z,8.15
2022-12-24T20:46:21.218Z,6.90
2022-12-24T20:48:53.047Z,7.10
2022-12-24T20:51:25.482Z,9.88
2022-12-24T20:53:57.693Z,7.07
2022-12-24T20:56:25.287Z,5.68
2022-12-24T20:58:52.380Z,5.60
2022-12-24T21:01:24.261Z,5.35
2022-12-24T21:03:51.331Z,5.68
2022-12-24T21:06:19.286Z,4.50
2022-12-24T21:08:48.466Z,4.53
2022-12-24T21:11:33.506Z,5.47
2022-12-24T21:14:02.038Z,5.20
2022-12-24T21:16:30.366Z,5.30
2022-12-24T21:18:56.898Z,5.30
2022-12-24T21:21:23.441Z,5.57
2022-12-24T21:23:49.892Z,4.80
2022-12-24T21:26:16.338Z,4.38
2022-12-24T21:28:45.281Z,4.78
2022-12-24T21:31:13.727Z,5.82
2022-12-24T21:33:40.436Z,4.53
2022-12-24T21:36:07.493Z,4.53
2022-12-24T21:38:35.104Z,4.53
2022-12-24T21:41:10.785Z,4.90
2022-12-24T21:43:49.999Z,5.43
2022-12-24T21:46:21.708Z,5.10
2022-12-24T21:49:09.701Z,5.22
2022-12-24T21:51:36.841Z,5.20
2022-12-24T21:54:22.059Z,4.53
2022-12-24T21:57:07.237Z,4.75
2022-12-24T21:59:38.298Z,5.40
2022-12-24T22:02:04.977Z,4.60
2022-12-24T22:04:32.803Z,4.93
2022-12-24T22:07:17.871Z,5.97
2022-12-24T22:10:03.020Z,4.45
2022-12-24T22:12:31.706Z,5.35
2022-12-24T22:14:58.824Z,5.68
2022-12-24T22:17:27.038Z,6.30
2022-12-24T22:19:54.671Z,6.20
2022-12-24T22:22:22.138Z,6.97
2022-12-24T22:24:48.582Z,8.57
2022-12-24T22:27:15.105Z,9.02
2022-12-24T22:29:41.612Z,8.80
2022-12-24T22:32:11.075Z,8.63
2022-12-24T22:34:37.656Z,9.23
2022-12-24T22:37:04.171Z,8.70
2022-12-24T22:39:30.702Z,8.63
2022-12-24T22:41:57.972Z,8.50
2022-12-24T22:44:24.789Z,7.40
2022-12-24T22:46:51.230Z,7.22
2022-12-24T22:49:17.719Z,7.00
2022-12-24T22:51:44.223Z,5.72
2022-12-24T22:54:10.705Z,7.40
2022-12-24T22:56:41.304Z,6.50
2022-12-24T22:59:12.168Z,6.65
